createdAt,value
2022-12-15T00:01:30.051Z,6.80
2022-12-15T00:04:16.836Z,6.30
2022-12-15T00:07:03.760Z,6.28
2022-12-15T00:09:50.588Z,5.82
2022-12-15T00:12:38.929Z,6.13
2022-12-15T00:15:25.950Z,5.60
2022-12-15T00:18:12.849Z,6.43
2022-12-15T00:20:59.994Z,6.88
2022-12-15T00:23:46.583Z,6.30
2022-12-15T00:26:33.241Z,6.03
2022-12-15T00:29:21.534Z,5.68
2022-12-15T00:32:08.389Z,4.65
2022-12-15T00:34:55.081Z,5.47
2022-12-15T00:37:42.102Z,5.78
2022-12-15T00:40:12.287Z,6.47
2022-12-15T00:42:41.913Z,7.05
2022-12-15T00:45:13.057Z,6.18
2022-12-15T00:47:41.333Z,7.40
2022-12-15T00:50:28.828Z,5.85
2022-12-15T00:53:15.369Z,5.18
2022-12-15T00:56:02.269Z,8.45
2022-12-15T00:58:49.211Z,6.50
2022-12-15T01:01:37.795Z,5.63
2022-12-15T01:04:24.488Z,6.43
2022-12-15T01:07:11.169Z,5.38
2022-12-15T01:09:58.070Z,5.80
2022-12-15T01:12:45.402Z,5.32
2022-12-15T01:15:32.222Z,6.18
2022-12-15T01:18:20.546Z,5.75
2022-12-15T01:20:56.792Z,6.70
2022-12-15T01:23:26.437Z,5.88
2022-12-15T01:25:56.401Z,7.40
2022-12-15T01:28:25.932Z,6.13
2022-12-15T01:30:55.691Z,5.65
2022-12-15T01:33:29.479Z,6.97
2022-12-15T01:36:00.936Z,6.03
2022-12-15T01:38:30.761Z,6.10
2022-12-15T01:41:01.898Z,6.57
2022-12-15T01:43:32.780Z,7.60
2022-12-15T01:46:05.032Z,6.38
2022-12-15T01:48:40.735Z,6.88
2022-12-15T01:51:16.046Z,6.40
2022-12-15T01:53:50.111Z,6.95
2022-12-15T01:56:20.606Z,6.68
2022-12-15T01:58:51.604Z,6.30
2022-12-15T02:01:21.079Z,5.93
2022-12-15T02:03:51.723Z,5.68
2022-12-15T02:06:22.956Z,7.83
2022-12-15T02:08:54.616Z,6.93
2022-12-15T02:11:38.185Z,6.13
2022-12-15T02:14:08.872Z,5.72
2022-12-15T02:16:48.093Z,6.00
2022-12-15T02:19:25.836Z,6.22
2022-12-15T02:22:01.528Z,5.22
2022-12-15T02:24:40.574Z,5.90
2022-12-15T02:27:25.406Z,6.25
2022-12-15T02:30:18.725Z,6.53
2022-12-15T02:32:55.341Z,6.05
2022-12-15T02:35:28.477Z,5.57
2022-12-15T02:37:57.488Z,7.15
2022-12-15T02:40:26.751Z,6.97
2022-12-15T02:42:57.911Z,6.22
2022-12-15T02:45:31.687Z,5.57
2022-12-15T02:48:05.930Z,5.38
2022-12-15T02:50:42.252Z,5.40
2022-12-15T02:53:19.623Z,5.65
2022-12-15T02:55:52.696Z,5.95
2022-12-15T02:58:28.029Z,5.32
2022-12-15T03:01:03.497Z,5.95
2022-12-15T03:03:36.756Z,4.97
2022-12-15T03:06:06.049Z,6.25
2022-12-15T03:08:35.005Z,6.03
2022-12-15T03:11:04.215Z,5.88
2022-12-15T03:13:33.511Z,5.53
2022-12-15T03:16:03.057Z,5.75
2022-12-15T03:18:32.101Z,5.72
2022-12-15T03:21:02.509Z,5.50
2022-12-15T03:23:31.896Z,5.73
2022-12-15T03:26:01.043Z,6.90
2022-12-15T03:28:30.159Z,5.75
2022-12-15T03:30:59.166Z,6.47
2022-12-15T03:33:28.734Z,6.03
2022-12-15T03:35:58.047Z,6.15
2022-12-15T03:38:28.532Z,6.15
2022-12-15T03:40:57.467Z,5.38
2022-12-15T03:43:26.702Z,5.93
2022-12-15T03:45:55.844Z,5.68
2022-12-15T03:48:24.865Z,5.40
2022-12-15T03:50:53.965Z,6.95
2022-12-15T03:53:22.959Z,5.28
2022-12-15T03:55:53.547Z,6.00
2022-12-15T03:58:22.871Z,6.40
2022-12-15T04:00:51.900Z,6.28
2022-12-15T04:03:21.785Z,5.50
2022-12-15T04:05:51.097Z,5.47
2022-12-15T04:08:26.688Z,5.38
2022-12-15T04:10:57.386Z,5.80
2022-12-15T04:13:26.362Z,6.70
2022-12-15T04:15:55.424Z,5.95
2022-12-15T04:18:24.422Z,6.25
2022-12-15T04:20:52.458Z,5.07
2022-12-15T04:23:21.689Z,5.22
2022-12-15T04:26:08.817Z,5.82
2022-12-15T04:28:56.978Z,4.30
2022-12-15T04:31:45.251Z,5.47
2022-12-15T04:34:32.872Z,5.93
2022-12-15T04:37:19.941Z,4.85
2022-12-15T04:40:09.947Z,5.53
2022-12-15T04:42:59.156Z,5.47
2022-12-15T04:45:47.374Z,5.45
2022-12-15T04:48:34.431Z,5.07
2022-12-15T04:51:23.749Z,6.13
2022-12-15T04:54:10.834Z,4.82
2022-12-15T04:56:57.728Z,4.88
2022-12-15T04:59:44.455Z,4.68
2022-12-15T05:02:32.460Z,4.88
2022-12-15T05:05:19.023Z,5.47
2022-12-15T05:08:05.704Z,4.32
2022-12-15T05:10:52.596Z,4.57
2022-12-15T05:13:39.143Z,4.30
2022-12-15T05:16:25.820Z,4.72
2022-12-15T05:19:13.850Z,4.63
2022-12-15T05:22:00.298Z,5.60
2022-12-15T05:24:46.682Z,4.90
2022-12-15T05:27:33.129Z,5.45
2022-12-15T05:30:20.150Z,5.57
2022-12-15T05:32:49.926Z,5.03
2022-12-15T05:35:20.667Z,5.88
2022-12-15T05:37:49.638Z,4.03
2022-12-15T05:40:18.657Z,5.28
2022-12-15T05:42:50.059Z,5.38
2022-12-15T05:45:19.511Z,5.75
2022-12-15T05:47:52.172Z,5.90
2022-12-15T05:50:23.038Z,5.40
2022-12-15T05:52:52.130Z,4.80
2022-12-15T05:55:21.253Z,5.47
2022-12-15T05:57:53.013Z,4.88
2022-12-15T06:00:22.353Z,5.97
2022-12-15T06:02:51.528Z,4.55
2022-12-15T06:05:22.228Z,5.25
2022-12-15T06:07:51.475Z,5.05
2022-12-15T06:10:21.180Z,4.75
2022-12-15T06:12:54.221Z,4.75
2022-12-15T06:15:23.616Z,4.93
2022-12-15T06:17:55.034Z,4.60
2022-12-15T06:20:25.619Z,4.95
2022-12-15T06:22:56.239Z,4.72
2022-12-15T06:25:25.371Z,6.53
2022-12-15T06:27:58.440Z,5.13
2022-12-15T06:30:30.796Z,6.25
2022-12-15T06:32:59.788Z,5.63
2022-12-15T06:35:30.229Z,6.10
2022-12-15T06:37:59.449Z,5.97
2022-12-15T06:40:31.003Z,6.25
2022-12-15T06:43:02.691Z,5.70
2022-12-15T06:45:31.967Z,6.22
2022-12-15T06:48:02.524Z,5.85
2022-12-15T06:50:37.804Z,6.20
2022-12-15T06:53:07.277Z,5.72
2022-12-15T06:55:37.300Z,6.22
2022-12-15T06:58:06.675Z,5.28
2022-12-15T07:00:36.775Z,5.80
2022-12-15T07:03:10.427Z,6.45
2022-12-15T07:05:42.362Z,6.90
2022-12-15T07:08:12.988Z,6.32
2022-12-15T07:10:44.149Z,6.97
2022-12-15T07:13:18.561Z,6.22
2022-12-15T07:15:50.071Z,5.70
2022-12-15T07:18:22.124Z,5.97
2022-12-15T07:20:52.924Z,6.20
2022-12-15T07:23:39.720Z,5.20
2022-12-15T07:26:12.196Z,5.95
2022-12-15T07:28:42.911Z,6.57
2022-12-15T07:31:12.766Z,6.18
2022-12-15T07:33:42.052Z,5.60
2022-12-15T07:36:13.284Z,6.22
2022-12-15T07:41:11.867Z,6.07
2022-12-15T07:43:41.829Z,6.55
2022-12-15T07:46:11.646Z,5.60
2022-12-15T07:48:41.173Z,6.03
2022-12-15T07:51:19.681Z,6.95
2022-12-15T07:53:51.495Z,6.72
2022-12-15T07:56:21.334Z,6.28
2022-12-15T07:58:51.491Z,7.07
2022-12-15T08:01:21.169Z,6.53
2022-12-15T08:03:50.644Z,7.22
2022-12-15T08:06:21.524Z,7.13
2022-12-15T08:08:51.443Z,6.55
2022-12-15T08:11:21.937Z,6.70
2022-12-15T08:16:40.792Z,6.82
2022-12-15T08:19:12.883Z,6.45
2022-12-15T08:21:45.466Z,7.18
2022-12-15T08:24:16.233Z,6.55
2022-12-15T08:26:51.186Z,6.95
2022-12-15T08:32:11.224Z,6.95
2022-12-15T08:34:42.859Z,7.13
2022-12-15T08:37:27.103Z,8.07
2022-12-15T08:39:57.957Z,7.32
2022-12-15T08:42:27.749Z,7.97
2022-12-15T08:44:57.145Z,6.53
2022-12-15T08:47:27.321Z,6.15
2022-12-15T08:49:56.547Z,7.43
2022-12-15T08:52:26.165Z,7.70
2022-12-15T08:54:55.733Z,8.82
2022-12-15T08:57:29.090Z,6.88
2022-12-15T08:59:58.597Z,7.70
2022-12-15T09:02:28.141Z,6.88
2022-12-15T09:05:00.267Z,7.05
2022-12-15T09:07:30.043Z,7.85
2022-12-15T09:10:01.115Z,7.90
2022-12-15T09:12:32.322Z,8.02
2022-12-15T09:15:01.836Z,8.98
2022-12-15T09:17:31.342Z,7.40
2022-12-15T09:20:00.730Z,7.65
2022-12-15T09:22:30.034Z,7.15
2022-12-15T09:24:59.269Z,7.85
2022-12-15T09:27:29.275Z,7.18
2022-12-15T09:30:00.247Z,7.00
2022-12-15T09:32:30.637Z,7.78
2022-12-15T09:35:00.753Z,8.23
2022-12-15T09:37:32.936Z,8.48
2022-12-15T09:40:04.088Z,7.43
2022-12-15T09:42:33.726Z,8.48
2022-12-15T09:45:10.556Z,8.38
2022-12-15T09:47:46.322Z,8.43
2022-12-15T09:50:19.088Z,7.53
2022-12-15T09:52:51.146Z,8.10
2022-12-15T09:55:23.224Z,9.93
2022-12-15T09:57:55.585Z,8.68
2022-12-15T10:00:27.429Z,8.48
2022-12-15T10:03:07.213Z,8.73
2022-12-15T10:06:06.214Z,8.73
2022-12-15T10:08:34.857Z,8.05
2022-12-15T10:13:37.831Z,9.07
2022-12-15T10:16:18.199Z,11.63
2022-12-15T10:18:59.260Z,10.25
2022-12-15T10:21:31.667Z,12.38
2022-12-15T10:24:03.572Z,12.48
2022-12-15T10:26:34.138Z,12.55
2022-12-15T10:29:19.213Z,13.63
2022-12-15T10:31:53.804Z,9.43
2022-12-15T10:34:27.737Z,8.57
2022-12-15T10:36:58.382Z,8.15
2022-12-15T10:39:39.377Z,7.70
2022-12-15T10:42:14.129Z,7.57
2022-12-15T10:44:45.121Z,6.97
2022-12-15T10:47:27.198Z,8.40
2022-12-15T10:49:56.841Z,9.85
2022-12-15T10:52:28.750Z,7.43
2022-12-15T10:55:01.040Z,8.25
2022-12-15T10:57:31.848Z,8.40
2022-12-15T11:00:25.064Z,7.32
2022-12-15T11:02:55.849Z,8.57
2022-12-15T11:05:25.590Z,7.60
2022-12-15T11:07:55.963Z,8.15
2022-12-15T11:10:27.463Z,8.80
2022-12-15T11:12:58.722Z,8.88
2022-12-15T11:15:43.374Z,8.43
2022-12-15T11:18:37.428Z,8.48
2022-12-15T11:21:09.913Z,9.52
2022-12-15T11:23:48.734Z,9.10
2022-12-15T11:26:26.063Z,10.20
2022-12-15T11:28:58.365Z,10.02
2022-12-15T11:31:33.643Z,10.40
2022-12-15T11:34:04.927Z,10.82
2022-12-15T11:36:55.336Z,10.90
2022-12-15T11:39:32.439Z,11.98
2022-12-15T11:42:07.248Z,12.48
2022-12-15T11:44:42.054Z,11.95
2022-12-15T11:47:20.020Z,11.75
2022-12-15T11:50:08.407Z,11.88
2022-12-15T11:52:56.742Z,13.75
2022-12-15T11:55:37.573Z,12.60
2022-12-15T11:58:26.205Z,11.70
2022-12-15T12:01:02.852Z,12.93
2022-12-15T12:03:37.010Z,13.30
2022-12-15T12:06:10.731Z,10.68
2022-12-15T12:08:58.435Z,9.85
2022-12-15T12:11:30.781Z,7.20
2022-12-15T12:14:11.909Z,8.52
2022-12-15T12:16:47.045Z,7.80
2022-12-15T12:19:20.116Z,8.30
2022-12-15T12:21:51.102Z,8.60
2022-12-15T12:24:22.383Z,8.73
2022-12-15T12:26:56.117Z,8.65
2022-12-15T12:29:30.391Z,9.27
2022-12-15T12:32:05.398Z,7.65
2022-12-15T12:34:39.973Z,9.23
2022-12-15T12:37:15.526Z,9.23
2022-12-15T12:39:44.842Z,9.45
2022-12-15T12:42:17.887Z,10.48
2022-12-15T12:44:47.352Z,9.57
2022-12-15T12:47:22.927Z,9.43
2022-12-15T12:49:54.412Z,9.38
2022-12-15T12:52:25.779Z,9.60
2022-12-15T12:55:01.361Z,9.27
2022-12-15T12:57:36.442Z,9.90
2022-12-15T13:00:15.066Z,10.60
2022-12-15T13:02:50.395Z,9.25
2022-12-15T13:05:31.607Z,8.93
2022-12-15T13:08:18.534Z,8.23
2022-12-15T13:13:48.555Z,9.77
2022-12-15T13:16:22.578Z,9.48
2022-12-15T13:18:59.395Z,8.02
2022-12-15T13:21:50.638Z,8.05
2022-12-15T13:24:24.508Z,7.82
2022-12-15T13:26:54.124Z,6.80
2022-12-15T13:29:24.939Z,7.20
2022-12-15T13:31:54.167Z,7.13
2022-12-15T13:34:24.800Z,8.55
2022-12-15T13:36:56.002Z,7.82
2022-12-15T13:39:58.748Z,7.45
2022-12-15T13:45:48.831Z,6.53
2022-12-15T13:48:46.624Z,5.55
2022-12-15T13:51:26.371Z,4.95
2022-12-15T13:53:57.584Z,4.97
2022-12-15T13:56:50.674Z,5.28
2022-12-15T13:59:38.360Z,4.95
2022-12-15T14:02:24.637Z,4.20
2022-12-15T14:05:14.849Z,5.57
2022-12-15T14:07:54.155Z,5.68
2022-12-15T14:10:25.808Z,5.25
2022-12-15T14:12:58.134Z,5.88
2022-12-15T14:15:31.157Z,6.55
2022-12-15T14:18:02.480Z,7.05
2022-12-15T14:20:41.491Z,5.72
2022-12-15T14:23:21.786Z,6.35
2022-12-15T14:25:55.721Z,6.55
2022-12-15T14:28:30.581Z,5.70
2022-12-15T14:31:02.469Z,6.85
2022-12-15T14:33:34.061Z,7.28
2022-12-15T14:36:08.312Z,5.80
2022-12-15T14:38:47.929Z,5.43
2022-12-15T14:41:23.179Z,5.65
2022-12-15T14:44:37.422Z,5.75
2022-12-15T14:46:49.797Z,4.93
2022-12-15T14:49:21.921Z,5.07
2022-12-15T14:51:54.905Z,5.20
2022-12-15T14:54:35.949Z,5.10
2022-12-15T14:57:14.764Z,4.88
2022-12-15T15:03:05.151Z,8.02
2022-12-15T15:03:15.529Z,5.82
2022-12-15T15:03:57.243Z,4.47
2022-12-15T15:06:44.407Z,4.00
2022-12-15T15:09:50.627Z,4.15
2022-12-15T15:12:25.540Z,3.60
2022-12-15T15:14:56.486Z,4.03
2022-12-15T15:17:27.666Z,4.45
2022-12-15T15:19:59.056Z,4.30
2022-12-15T15:22:46.354Z,4.63
2022-12-15T15:25:29.105Z,4.15
2022-12-15T15:28:14.074Z,4.15
2022-12-15T15:30:48.058Z,4.15
2022-12-15T15:33:18.079Z,4.45
2022-12-15T15:35:51.218Z,4.35
2022-12-15T15:38:25.014Z,3.80
2022-12-15T15:40:54.930Z,4.57
2022-12-15T15:43:25.856Z,5.00
2022-12-15T15:45:57.917Z,3.85
2022-12-15T15:48:29.335Z,5.55
2022-12-15T15:53:27.912Z,7.22
2022-12-15T15:55:57.275Z,6.97
2022-12-15T15:58:30.694Z,6.03
2022-12-15T16:01:00.335Z,6.10
2022-12-15T16:03:29.849Z,6.28
2022-12-15T16:05:59.592Z,5.75
2022-12-15T16:08:34.092Z,5.88
2022-12-15T16:11:04.374Z,5.60
2022-12-15T16:13:34.943Z,6.15
2022-12-15T16:16:04.392Z,4.70
2022-12-15T16:18:35.514Z,4.88
2022-12-15T16:21:04.925Z,6.53
2022-12-15T16:23:34.223Z,5.38
2022-12-15T16:26:03.488Z,5.20
2022-12-15T16:28:33.424Z,5.25
2022-12-15T16:31:04.127Z,5.05
2022-12-15T16:33:33.478Z,5.25
2022-12-15T16:36:02.527Z,5.03
2022-12-15T16:38:32.951Z,5.97
2022-12-15T16:41:06.817Z,8.07
2022-12-15T16:43:41.552Z,7.28
2022-12-15T16:46:17.130Z,5.35
2022-12-15T16:48:46.491Z,6.70
2022-12-15T16:51:26.504Z,7.13
2022-12-15T16:53:55.682Z,8.65
2022-12-15T16:56:25.137Z,8.55
2022-12-15T16:59:15.518Z,7.82
2022-12-15T17:01:45.310Z,8.98
2022-12-15T17:04:17.169Z,7.38
2022-12-15T17:06:47.269Z,10.52
2022-12-15T17:09:21.075Z,10.48
2022-12-15T17:11:50.812Z,13.50
2022-12-15T17:14:19.962Z,11.50
2022-12-15T17:16:50.821Z,10.88
2022-12-15T17:19:21.516Z,10.77
2022-12-15T17:21:52.966Z,12.77
2022-12-15T17:24:22.753Z,15.95
2022-12-15T17:26:52.994Z,23.47
2022-12-15T17:29:23.215Z,23.25
2022-12-15T17:31:54.130Z,28.15
2022-12-15T17:34:31.144Z,31.10
2022-12-15T17:37:00.927Z,38.75
2022-12-15T17:39:30.839Z,27.08
2022-12-15T17:42:02.126Z,36.70
2022-12-15T17:44:36.153Z,32.72
2022-12-15T17:47:09.383Z,28.80
2022-12-15T17:49:39.312Z,20.08
2022-12-15T17:52:25.677Z,17.45
2022-12-15T17:54:55.633Z,15.77
2022-12-15T17:57:25.817Z,13.63
2022-12-15T17:59:55.741Z,14.95
2022-12-15T18:02:27.329Z,16.17
2022-12-15T18:04:56.949Z,16.80
2022-12-15T18:07:26.892Z,17.60
2022-12-15T18:09:56.296Z,19.48
2022-12-15T18:12:27.030Z,17.65
2022-12-15T18:14:56.825Z,18.27
2022-12-15T18:17:27.882Z,17.98
2022-12-15T18:19:57.194Z,16.25
2022-12-15T18:22:26.477Z,14.70
2022-12-15T18:24:56.206Z,17.17
2022-12-15T18:27:26.706Z,16.33
2022-12-15T18:29:56.483Z,15.63
2022-12-15T18:32:29.825Z,12.80
2022-12-15T18:34:59.093Z,13.55
2022-12-15T18:37:28.317Z,15.13
2022-12-15T18:40:04.145Z,14.35
2022-12-15T18:42:34.705Z,15.02
2022-12-15T18:45:05.140Z,15.73
2022-12-15T18:47:35.843Z,17.80
2022-12-15T18:50:05.056Z,17.33
2022-12-15T18:52:35.084Z,15.63
2022-12-15T18:55:04.458Z,14.05
2022-12-15T18:57:35.823Z,16.85
2022-12-15T19:05:25.606Z,11.57
2022-12-15T19:07:55.596Z,13.05
2022-12-15T19:10:25.191Z,13.52
2022-12-15T19:12:58.581Z,12.48
2022-12-15T19:15:28.111Z,12.23
2022-12-15T19:18:14.907Z,14.75
2022-12-15T19:21:03.598Z,13.82
2022-12-15T19:23:33.243Z,13.23
2022-12-15T19:26:02.801Z,10.38
2022-12-15T19:28:33.404Z,11.82
2022-12-15T19:31:02.927Z,12.40
2022-12-15T19:33:32.452Z,11.20
2022-12-15T19:36:03.565Z,11.98
2022-12-15T19:38:34.202Z,11.70
2022-12-15T19:41:03.309Z,11.80
2022-12-15T19:43:33.108Z,9.63
2022-12-15T19:46:02.443Z,10.30
2022-12-15T19:48:31.784Z,11.07
2022-12-15T19:51:01.322Z,10.55
2022-12-15T19:53:32.935Z,11.82
2022-12-15T19:56:02.412Z,12.48
2022-12-15T19:58:32.842Z,12.55
2022-12-15T20:01:03.029Z,11.73
2022-12-15T20:03:33.047Z,12.55
2022-12-15T20:06:03.498Z,12.80
2022-12-15T20:08:37.280Z,14.52
2022-12-15T20:11:07.008Z,13.57
2022-12-15T20:13:36.470Z,12.07
2022-12-15T20:16:06.251Z,11.68
2022-12-15T20:18:35.809Z,11.25
2022-12-15T20:21:05.355Z,11.80
2022-12-15T20:23:36.560Z,13.35
2022-12-15T20:26:07.619Z,12.13
2022-12-15T20:28:36.809Z,12.65
2022-12-15T20:31:06.210Z,12.85
2022-12-15T20:33:35.678Z,16.20
2022-12-15T20:36:05.340Z,26.00
2022-12-15T20:38:36.152Z,27.13
2022-12-15T20:41:05.671Z,21.87
2022-12-15T20:43:35.957Z,19.38
2022-12-15T20:46:07.095Z,13.68
2022-12-15T20:48:37.818Z,10.93
2022-12-15T20:51:10.077Z,10.13
2022-12-15T20:53:41.280Z,9.52
2022-12-15T20:56:11.316Z,10.52
2022-12-15T20:58:40.642Z,11.43
2022-12-15T21:01:17.915Z,10.25
2022-12-15T21:03:47.603Z,11.50
2022-12-15T21:06:16.887Z,13.02
2022-12-15T21:08:47.782Z,11.13
2022-12-15T21:11:18.536Z,11.48
2022-12-15T21:13:49.218Z,11.15
2022-12-15T21:16:20.206Z,8.50
2022-12-15T21:19:18.722Z,11.60
2022-12-15T21:21:39.839Z,10.48
2022-12-15T21:24:16.298Z,10.70
2022-12-15T21:26:45.827Z,11.15
2022-12-15T21:29:16.147Z,10.90
2022-12-15T21:31:45.755Z,12.15
2022-12-15T21:34:15.383Z,11.45
2022-12-15T21:36:45.624Z,10.80
2022-12-15T21:39:23.432Z,11.45
2022-12-15T21:41:52.607Z,10.57
2022-12-15T21:44:24.748Z,11.35
2022-12-15T21:46:54.768Z,10.98
2022-12-15T21:49:23.389Z,11.60
2022-12-15T21:51:53.364Z,11.40
2022-12-15T21:57:01.055Z,10.35
2022-12-15T21:59:30.906Z,9.50
2022-12-15T22:02:01.744Z,10.23
2022-12-15T22:04:32.350Z,9.88
2022-12-15T22:07:01.605Z,9.40
2022-12-15T22:09:30.875Z,10.38
2022-12-15T22:12:02.028Z,12.57
2022-12-15T22:14:33.542Z,12.13
2022-12-15T22:17:03.294Z,11.60
2022-12-15T22:19:32.403Z,10.48
2022-12-15T22:22:01.663Z,11.85
2022-12-15T22:24:31.156Z,12.40
2022-12-15T22:27:01.711Z,12.65
2022-12-15T22:29:31.733Z,15.03
2022-12-15T22:32:00.922Z,12.40
2022-12-15T22:34:30.184Z,14.07
2022-12-15T22:37:01.682Z,13.65
2022-12-15T22:42:01.977Z,12.15
2022-12-15T22:44:36.347Z,12.30
2022-12-15T22:47:06.495Z,11.43
2022-12-15T22:49:37.836Z,12.10
2022-12-15T22:52:15.111Z,12.15
2022-12-15T22:54:45.924Z,12.45
2022-12-15T22:57:22.014Z,12.93
2022-12-15T22:59:53.107Z,12.45
2022-12-15T23:02:24.202Z,13.23
2022-12-15T23:04:53.325Z,12.95
2022-12-15T23:07:24.028Z,12.87
2022-12-15T23:10:13.407Z,10.98
2022-12-15T23:12:43.047Z,11.10
2022-12-15T23:15:30.317Z,12.10
2022-12-15T23:17:59.724Z,12.10
2022-12-15T23:20:29.602Z,10.18
2022-12-15T23:22:58.796Z,10.95
2022-12-15T23:25:32.860Z,11.48
2022-12-15T23:28:03.552Z,10.38
2022-12-15T23:30:32.817Z,11.70
2022-12-15T23:33:02.651Z,10.80
2022-12-15T23:35:31.972Z,11.68
2022-12-15T23:38:01.561Z,11.40
2022-12-15T23:40:30.831Z,10.70
2022-12-15T23:42:59.901Z,10.95
2022-12-15T23:45:30.530Z,10.50
2022-12-15T23:47:59.745Z,11.70
2022-12-15T23:50:29.150Z,10.85
2022-12-15T23:52:58.260Z,11.10
2022-12-15T23:55:27.383Z,11.05
2022-12-15T23:57:57.062Z,11.60
